sensor_id;sensor_type;location;lat;lon;timestamp;P1;durP1;ratioP1;P2;durP2;ratioP2
12703;SDS011;6416;52.182;7.650;2022-12-04T00:01:27;33.20;;;21.60;;
12703;SDS011;6416;52.182;7.650;2022-12-04T00:03:53;31.70;;;23.90;;
12703;SDS011;6416;52.182;7.650;2022-12-04T00:06:20;30.50;;;21.47;;
12703;SDS011;6416;52.182;7.650;2022-12-04T00:08:47;27.83;;;19.93;;
12703;SDS011;6416;52.182;7.650;2022-12-04T00:11:14;30.73;;;20.20;;
12703;SDS011;6416;52.182;7.650;2022-12-04T00:13:44;29.03;;;20.77;;
12703;SDS011;6416;52.182;7.650;2022-12-04T00:16:12;29.03;;;20.40;;
12703;SDS011;6416;52.182;7.650;2022-12-04T00:18:40;30.87;;;21.03;;
12703;SDS011;6416;52.182;7.650;2022-12-04T00:21:06;28.43;;;20.60;;
12703;SDS011;6416;52.182;7.650;2022-12-04T00:23:33;28.77;;;19.73;;
12703;SDS011;6416;52.182;7.650;2022-12-04T00:26:04;25.43;;;19.23;;
12703;SDS011;6416;52.182;7.650;2022-12-04T00:28:32;32.20;;;22.30;;
12703;SDS011;6416;52.182;7.650;2022-12-04T00:30:58;28.17;;;20.00;;
12703;SDS011;6416;52.182;7.650;2022-12-04T00:33:23;32.77;;;22.73;;
12703;SDS011;6416;52.182;7.650;2022-12-04T00:35:56;37.10;;;24.73;;
12703;SDS011;6416;52.182;7.650;2022-12-04T00:38:22;32.17;;;23.10;;
12703;SDS011;6416;52.182;7.650;2022-12-04T00:40:51;30.27;;;20.70;;
12703;SDS011;6416;52.182;7.650;2022-12-04T00:43:17;28.23;;;19.77;;
12703;SDS011;6416;52.182;7.650;2022-12-04T00:45:43;28.03;;;19.20;;
12703;SDS011;6416;52.182;7.650;2022-12-04T00:48:08;28.37;;;19.93;;
12703;SDS011;6416;52.182;7.650;2022-12-04T00:50:34;27.80;;;20.03;;
12703;SDS011;6416;52.182;7.650;2022-12-04T00:53:00;31.13;;;22.00;;
12703;SDS011;6416;52.182;7.650;2022-12-04T00:55:25;30.27;;;21.80;;
12703;SDS011;6416;52.182;7.650;2022-12-04T00:57:51;31.83;;;21.73;;
12703;SDS011;6416;52.182;7.650;2022-12-04T01:00:16;29.90;;;21.87;;
12703;SDS011;6416;52.182;7.650;2022-12-04T01:02:42;30.87;;;21.60;;
12703;SDS011;6416;52.182;7.650;2022-12-04T01:05:08;28.73;;;20.17;;
12703;SDS011;6416;52.182;7.650;2022-12-04T01:07:34;26.83;;;19.57;;
12703;SDS011;6416;52.182;7.650;2022-12-04T01:10:00;28.60;;;20.03;;
12703;SDS011;6416;52.182;7.650;2022-12-04T01:12:25;28.63;;;20.07;;
12703;SDS011;6416;52.182;7.650;2022-12-04T01:14:51;28.80;;;21.13;;
12703;SDS011;6416;52.182;7.650;2022-12-04T01:17:16;30.37;;;21.33;;
12703;SDS011;6416;52.182;7.650;2022-12-04T01:19:42;28.77;;;19.27;;
12703;SDS011;6416;52.182;7.650;2022-12-04T01:22:07;28.13;;;20.57;;
12703;SDS011;6416;52.182;7.650;2022-12-04T01:24:33;32.00;;;20.83;;
12703;SDS011;6416;52.182;7.650;2022-12-04T01:26:58;32.97;;;21.47;;
12703;SDS011;6416;52.182;7.650;2022-12-04T01:29:24;30.27;;;20.17;;
12703;SDS011;6416;52.182;7.650;2022-12-04T01:31:49;30.93;;;21.23;;
12703;SDS011;6416;52.182;7.650;2022-12-04T01:34:15;26.40;;;19.33;;
12703;SDS011;6416;52.182;7.650;2022-12-04T01:36:40;30.17;;;20.80;;
12703;SDS011;6416;52.182;7.650;2022-12-04T01:39:06;28.17;;;19.57;;
12703;SDS011;6416;52.182;7.650;2022-12-04T01:41:31;28.47;;;21.03;;
12703;SDS011;6416;52.182;7.650;2022-12-04T01:46:46;28.63;;;19.63;;
12703;SDS011;6416;52.182;7.650;2022-12-04T01:49:20;24.83;;;18.40;;
12703;SDS011;6416;52.182;7.650;2022-12-04T01:51:50;25.10;;;18.17;;
12703;SDS011;6416;52.182;7.650;2022-12-04T01:54:21;26.17;;;20.03;;
12703;SDS011;6416;52.182;7.650;2022-12-04T01:56:54;26.43;;;18.30;;
12703;SDS011;6416;52.182;7.650;2022-12-04T01:59:25;31.97;;;20.17;;
12703;SDS011;6416;52.182;7.650;2022-12-04T02:02:02;26.17;;;19.03;;
12703;SDS011;6416;52.182;7.650;2022-12-04T02:04:29;31.13;;;19.77;;
12703;SDS011;6416;52.182;7.650;2022-12-04T02:06:55;29.47;;;21.50;;
12703;SDS011;6416;52.182;7.650;2022-12-04T02:09:20;30.27;;;21.40;;
12703;SDS011;6416;52.182;7.650;2022-12-04T02:11:51;33.37;;;21.13;;
12703;SDS011;6416;52.182;7.650;2022-12-04T02:17:31;29.10;;;20.40;;
12703;SDS011;6416;52.182;7.650;2022-12-04T02:20:17;27.63;;;19.17;;
12703;SDS011;6416;52.182;7.650;2022-12-04T02:25:43;28.53;;;19.27;;
12703;SDS011;6416;52.182;7.650;2022-12-04T02:30:56;27.20;;;18.63;;
12703;SDS011;6416;52.182;7.650;2022-12-04T02:33:44;27.37;;;18.50;;
12703;SDS011;6416;52.182;7.650;2022-12-04T02:36:20;28.63;;;17.73;;
12703;SDS011;6416;52.182;7.650;2022-12-04T02:38:55;28.47;;;18.97;;
12703;SDS011;6416;52.182;7.650;2022-12-04T02:44:22;26.73;;;18.80;;
12703;SDS011;6416;52.182;7.650;2022-12-04T02:46:59;29.40;;;20.90;;
12703;SDS011;6416;52.182;7.650;2022-12-04T02:49:29;27.70;;;18.80;;
12703;SDS011;6416;52.182;7.650;2022-12-04T02:51:58;29.27;;;19.93;;
12703;SDS011;6416;52.182;7.650;2022-12-04T02:54:30;28.00;;;19.03;;
12703;SDS011;6416;52.182;7.650;2022-12-04T02:57:02;25.47;;;17.57;;
12703;SDS011;6416;52.182;7.650;2022-12-04T02:59:32;26.23;;;18.60;;
12703;SDS011;6416;52.182;7.650;2022-12-04T03:02:13;26.10;;;18.70;;
12703;SDS011;6416;52.182;7.650;2022-12-04T03:04:49;25.73;;;17.17;;
12703;SDS011;6416;52.182;7.650;2022-12-04T03:07:18;26.67;;;18.17;;
12703;SDS011;6416;52.182;7.650;2022-12-04T03:09:55;27.77;;;18.10;;
12703;SDS011;6416;52.182;7.650;2022-12-04T03:12:29;26.63;;;18.60;;
12703;SDS011;6416;52.182;7.650;2022-12-04T03:15:09;24.67;;;17.30;;
12703;SDS011;6416;52.182;7.650;2022-12-04T03:17:43;28.87;;;19.20;;
12703;SDS011;6416;52.182;7.650;2022-12-04T03:20:14;31.43;;;19.73;;
12703;SDS011;6416;52.182;7.650;2022-12-04T03:22:41;27.83;;;19.80;;
12703;SDS011;6416;52.182;7.650;2022-12-04T03:25:09;28.63;;;20.00;;
12703;SDS011;6416;52.182;7.650;2022-12-04T03:30:18;29.07;;;18.37;;
12703;SDS011;6416;52.182;7.650;2022-12-04T03:32:48;25.77;;;18.50;;
12703;SDS011;6416;52.182;7.650;2022-12-04T03:35:25;30.07;;;19.40;;
12703;SDS011;6416;52.182;7.650;2022-12-04T03:40:57;27.80;;;18.43;;
12703;SDS011;6416;52.182;7.650;2022-12-04T03:43:26;28.20;;;18.83;;
12703;SDS011;6416;52.182;7.650;2022-12-04T03:48:36;28.83;;;18.53;;
12703;SDS011;6416;52.182;7.650;2022-12-04T03:51:28;27.73;;;18.47;;
12703;SDS011;6416;52.182;7.650;2022-12-04T03:54:02;28.67;;;18.07;;
12703;SDS011;6416;52.182;7.650;2022-12-04T03:56:35;29.07;;;19.83;;
12703;SDS011;6416;52.182;7.650;2022-12-04T03:59:07;28.03;;;18.70;;
12703;SDS011;6416;52.182;7.650;2022-12-04T04:01:38;27.33;;;18.47;;
12703;SDS011;6416;52.182;7.650;2022-12-04T04:04:11;27.17;;;18.03;;
12703;SDS011;6416;52.182;7.650;2022-12-04T04:06:41;27.57;;;18.33;;
12703;SDS011;6416;52.182;7.650;2022-12-04T04:09:12;28.13;;;18.63;;
12703;SDS011;6416;52.182;7.650;2022-12-04T04:14:47;28.83;;;18.30;;
12703;SDS011;6416;52.182;7.650;2022-12-04T04:17:16;24.07;;;17.03;;
12703;SDS011;6416;52.182;7.650;2022-12-04T04:19:46;28.00;;;18.43;;
12703;SDS011;6416;52.182;7.650;2022-12-04T04:22:15;27.63;;;18.10;;
12703;SDS011;6416;52.182;7.650;2022-12-04T04:24:46;25.87;;;18.47;;
12703;SDS011;6416;52.182;7.650;2022-12-04T04:27:16;30.13;;;19.33;;
12703;SDS011;6416;52.182;7.650;2022-12-04T04:29:42;27.60;;;18.43;;
12703;SDS011;6416;52.182;7.650;2022-12-04T04:35:51;28.17;;;18.53;;
12703;SDS011;6416;52.182;7.650;2022-12-04T04:37:50;28.83;;;19.00;;
12703;SDS011;6416;52.182;7.650;2022-12-04T04:45:46;26.00;;;16.90;;
12703;SDS011;6416;52.182;7.650;2022-12-04T04:48:24;23.93;;;16.80;;
12703;SDS011;6416;52.182;7.650;2022-12-04T04:50:54;24.30;;;16.07;;
12703;SDS011;6416;52.182;7.650;2022-12-04T04:53:21;24.20;;;16.70;;
12703;SDS011;6416;52.182;7.650;2022-12-04T04:55:49;23.87;;;16.77;;
12703;SDS011;6416;52.182;7.650;2022-12-04T04:58:16;28.00;;;18.17;;
12703;SDS011;6416;52.182;7.650;2022-12-04T05:00:43;23.20;;;16.47;;
12703;SDS011;6416;52.182;7.650;2022-12-04T05:03:35;23.70;;;16.60;;
12703;SDS011;6416;52.182;7.650;2022-12-04T05:06:01;24.80;;;17.20;;
12703;SDS011;6416;52.182;7.650;2022-12-04T05:08:26;25.37;;;17.07;;
12703;SDS011;6416;52.182;7.650;2022-12-04T05:10:52;24.57;;;18.40;;
12703;SDS011;6416;52.182;7.650;2022-12-04T05:13:18;25.13;;;18.23;;
12703;SDS011;6416;52.182;7.650;2022-12-04T05:15:44;25.57;;;17.43;;
12703;SDS011;6416;52.182;7.650;2022-12-04T05:18:20;24.80;;;17.97;;
12703;SDS011;6416;52.182;7.650;2022-12-04T05:20:46;25.87;;;17.37;;
12703;SDS011;6416;52.182;7.650;2022-12-04T05:23:11;20.93;;;15.40;;
12703;SDS011;6416;52.182;7.650;2022-12-04T05:25:37;23.27;;;16.43;;
12703;SDS011;6416;52.182;7.650;2022-12-04T05:28:02;24.63;;;16.57;;
12703;SDS011;6416;52.182;7.650;2022-12-04T05:30:28;22.83;;;15.87;;
12703;SDS011;6416;52.182;7.650;2022-12-04T05:32:53;25.67;;;17.47;;
12703;SDS011;6416;52.182;7.650;2022-12-04T05:35:21;25.93;;;17.27;;
12703;SDS011;6416;52.182;7.650;2022-12-04T05:37:47;22.23;;;15.63;;
12703;SDS011;6416;52.182;7.650;2022-12-04T05:40:12;23.37;;;15.87;;
12703;SDS011;6416;52.182;7.650;2022-12-04T05:42:38;23.30;;;15.53;;
12703;SDS011;6416;52.182;7.650;2022-12-04T05:45:03;24.10;;;15.97;;
12703;SDS011;6416;52.182;7.650;2022-12-04T05:47:29;26.03;;;17.33;;
12703;SDS011;6416;52.182;7.650;2022-12-04T05:49:55;23.87;;;16.03;;
12703;SDS011;6416;52.182;7.650;2022-12-04T05:52:20;22.27;;;16.23;;
12703;SDS011;6416;52.182;7.650;2022-12-04T05:54:46;23.00;;;15.43;;
12703;SDS011;6416;52.182;7.650;2022-12-04T05:57:11;22.90;;;16.50;;
12703;SDS011;6416;52.182;7.650;2022-12-04T05:59:37;23.80;;;16.33;;
12703;SDS011;6416;52.182;7.650;2022-12-04T06:02:02;21.40;;;15.40;;
12703;SDS011;6416;52.182;7.650;2022-12-04T06:04:28;17.23;;;13.27;;
12703;SDS011;6416;52.182;7.650;2022-12-04T06:06:53;21.17;;;15.60;;
12703;SDS011;6416;52.182;7.650;2022-12-04T06:09:19;22.37;;;15.30;;
12703;SDS011;6416;52.182;7.650;2022-12-04T06:11:45;20.27;;;14.57;;
12703;SDS011;6416;52.182;7.650;2022-12-04T06:14:12;21.97;;;14.00;;
12703;SDS011;6416;52.182;7.650;2022-12-04T06:16:39;21.73;;;14.00;;
12703;SDS011;6416;52.182;7.650;2022-12-04T06:19:11;20.70;;;14.13;;
12703;SDS011;6416;52.182;7.650;2022-12-04T06:21:39;22.17;;;13.73;;
12703;SDS011;6416;52.182;7.650;2022-12-04T06:24:06;19.57;;;13.63;;
12703;SDS011;6416;52.182;7.650;2022-12-04T06:26:34;19.90;;;13.20;;
12703;SDS011;6416;52.182;7.650;2022-12-04T06:28:59;19.60;;;13.50;;
12703;SDS011;6416;52.182;7.650;2022-12-04T06:31:26;17.70;;;12.90;;
12703;SDS011;6416;52.182;7.650;2022-12-04T06:33:53;18.27;;;13.27;;
12703;SDS011;6416;52.182;7.650;2022-12-04T06:36:20;19.47;;;13.53;;
12703;SDS011;6416;52.182;7.650;2022-12-04T06:38:46;17.93;;;12.60;;
12703;SDS011;6416;52.182;7.650;2022-12-04T06:41:13;16.87;;;11.87;;
12703;SDS011;6416;52.182;7.650;2022-12-04T06:43:41;16.50;;;11.57;;
12703;SDS011;6416;52.182;7.650;2022-12-04T06:46:07;16.37;;;11.63;;
12703;SDS011;6416;52.182;7.650;2022-12-04T06:48:35;16.73;;;12.37;;
12703;SDS011;6416;52.182;7.650;2022-12-04T06:51:05;16.37;;;11.37;;
12703;SDS011;6416;52.182;7.650;2022-12-04T06:53:33;16.83;;;12.07;;
12703;SDS011;6416;52.182;7.650;2022-12-04T06:56:00;17.30;;;12.07;;
12703;SDS011;6416;52.182;7.650;2022-12-04T06:58:28;17.53;;;12.27;;
12703;SDS011;6416;52.182;7.650;2022-12-04T07:00:55;15.77;;;10.80;;
12703;SDS011;6416;52.182;7.650;2022-12-04T07:03:21;17.47;;;11.17;;
12703;SDS011;6416;52.182;7.650;2022-12-04T07:05:47;14.17;;;10.77;;
12703;SDS011;6416;52.182;7.650;2022-12-04T07:08:12;13.27;;;9.83;;
12703;SDS011;6416;52.182;7.650;2022-12-04T07:10:38;14.03;;;11.00;;
12703;SDS011;6416;52.182;7.650;2022-12-04T07:13:04;14.23;;;10.73;;
12703;SDS011;6416;52.182;7.650;2022-12-04T07:15:31;14.87;;;10.37;;
12703;SDS011;6416;52.182;7.650;2022-12-04T07:17:57;13.67;;;9.93;;
12703;SDS011;6416;52.182;7.650;2022-12-04T07:20:22;14.33;;;10.03;;
12703;SDS011;6416;52.182;7.650;2022-12-04T07:22:48;11.77;;;9.40;;
12703;SDS011;6416;52.182;7.650;2022-12-04T07:25:13;14.00;;;10.50;;
12703;SDS011;6416;52.182;7.650;2022-12-04T07:27:39;12.73;;;9.97;;
12703;SDS011;6416;52.182;7.650;2022-12-04T07:30:05;14.60;;;10.23;;
12703;SDS011;6416;52.182;7.650;2022-12-04T07:32:33;14.27;;;9.87;;
12703;SDS011;6416;52.182;7.650;2022-12-04T07:34:58;13.33;;;9.70;;
12703;SDS011;6416;52.182;7.650;2022-12-04T07:37:24;14.43;;;10.40;;
12703;SDS011;6416;52.182;7.650;2022-12-04T07:39:52;20.23;;;12.63;;
12703;SDS011;6416;52.182;7.650;2022-12-04T07:42:18;19.47;;;13.00;;
12703;SDS011;6416;52.182;7.650;2022-12-04T07:44:44;15.03;;;11.27;;
12703;SDS011;6416;52.182;7.650;2022-12-04T07:47:10;14.33;;;10.17;;
12703;SDS011;6416;52.182;7.650;2022-12-04T07:49:36;15.20;;;10.83;;
12703;SDS011;6416;52.182;7.650;2022-12-04T07:52:01;14.03;;;10.87;;
12703;SDS011;6416;52.182;7.650;2022-12-04T07:54:27;19.57;;;12.53;;
12703;SDS011;6416;52.182;7.650;2022-12-04T07:56:52;16.70;;;11.20;;
12703;SDS011;6416;52.182;7.650;2022-12-04T07:59:18;15.63;;;10.50;;
12703;SDS011;6416;52.182;7.650;2022-12-04T08:01:43;12.90;;;9.60;;
12703;SDS011;6416;52.182;7.650;2022-12-04T08:04:09;11.47;;;8.93;;
12703;SDS011;6416;52.182;7.650;2022-12-04T08:06:35;11.63;;;8.50;;
12703;SDS011;6416;52.182;7.650;2022-12-04T08:09:01;11.57;;;9.03;;
12703;SDS011;6416;52.182;7.650;2022-12-04T08:11:30;11.60;;;8.83;;
12703;SDS011;6416;52.182;7.650;2022-12-04T08:14:00;12.77;;;9.17;;
12703;SDS011;6416;52.182;7.650;2022-12-04T08:16:28;10.50;;;8.20;;
12703;SDS011;6416;52.182;7.650;2022-12-04T08:18:55;14.80;;;9.00;;
12703;SDS011;6416;52.182;7.650;2022-12-04T08:21:22;11.43;;;8.50;;
12703;SDS011;6416;52.182;7.650;2022-12-04T08:23:50;10.57;;;8.20;;
12703;SDS011;6416;52.182;7.650;2022-12-04T08:26:17;12.13;;;8.20;;
12703;SDS011;6416;52.182;7.650;2022-12-04T08:28:44;11.00;;;8.13;;
12703;SDS011;6416;52.182;7.650;2022-12-04T08:31:14;11.83;;;9.23;;
12703;SDS011;6416;52.182;7.650;2022-12-04T08:33:45;11.50;;;8.83;;
12703;SDS011;6416;52.182;7.650;2022-12-04T08:36:14;10.57;;;8.57;;
12703;SDS011;6416;52.182;7.650;2022-12-04T08:38:41;9.70;;;7.90;;
12703;SDS011;6416;52.182;7.650;2022-12-04T08:41:08;10.20;;;8.03;;
12703;SDS011;6416;52.182;7.650;2022-12-04T08:43:35;11.83;;;9.00;;
12703;SDS011;6416;52.182;7.650;2022-12-04T08:46:02;12.60;;;8.33;;
12703;SDS011;6416;52.182;7.650;2022-12-04T08:48:32;10.87;;;8.47;;
12703;SDS011;6416;52.182;7.650;2022-12-04T08:50:58;11.30;;;9.03;;
12703;SDS011;6416;52.182;7.650;2022-12-04T08:53:24;11.37;;;8.60;;
12703;SDS011;6416;52.182;7.650;2022-12-04T08:55:50;14.43;;;10.03;;
12703;SDS011;6416;52.182;7.650;2022-12-04T08:58:16;11.83;;;8.63;;
12703;SDS011;6416;52.182;7.650;2022-12-04T09:00:43;12.50;;;8.93;;
12703;SDS011;6416;52.182;7.650;2022-12-04T09:03:12;11.23;;;9.30;;
12703;SDS011;6416;52.182;7.650;2022-12-04T09:05:39;12.80;;;9.40;;
12703;SDS011;6416;52.182;7.650;2022-12-04T09:08:04;13.40;;;9.73;;
12703;SDS011;6416;52.182;7.650;2022-12-04T09:10:30;13.83;;;10.50;;
12703;SDS011;6416;52.182;7.650;2022-12-04T09:12:57;12.27;;;9.53;;
12703;SDS011;6416;52.182;7.650;2022-12-04T09:15:22;10.73;;;8.67;;
12703;SDS011;6416;52.182;7.650;2022-12-04T09:17:48;10.63;;;8.77;;
12703;SDS011;6416;52.182;7.650;2022-12-04T09:20:13;12.83;;;9.90;;
12703;SDS011;6416;52.182;7.650;2022-12-04T09:22:39;12.30;;;9.40;;
12703;SDS011;6416;52.182;7.650;2022-12-04T09:25:04;14.53;;;10.70;;
12703;SDS011;6416;52.182;7.650;2022-12-04T09:27:34;12.03;;;9.53;;
12703;SDS011;6416;52.182;7.650;2022-12-04T09:30:00;14.07;;;9.73;;
12703;SDS011;6416;52.182;7.650;2022-12-04T09:32:26;13.33;;;10.47;;
12703;SDS011;6416;52.182;7.650;2022-12-04T09:34:51;14.83;;;10.83;;
12703;SDS011;6416;52.182;7.650;2022-12-04T09:37:17;12.87;;;10.10;;
12703;SDS011;6416;52.182;7.650;2022-12-04T09:39:42;11.63;;;9.63;;
12703;SDS011;6416;52.182;7.650;2022-12-04T09:45:10;14.27;;;10.63;;
12703;SDS011;6416;52.182;7.650;2022-12-04T09:47:41;15.90;;;12.97;;
12703;SDS011;6416;52.182;7.650;2022-12-04T09:50:11;18.80;;;12.97;;
12703;SDS011;6416;52.182;7.650;2022-12-04T09:52:55;15.73;;;11.83;;
12703;SDS011;6416;52.182;7.650;2022-12-04T09:55:40;17.77;;;12.63;;
12703;SDS011;6416;52.182;7.650;2022-12-04T09:58:19;18.77;;;12.87;;
12703;SDS011;6416;52.182;7.650;2022-12-04T10:00:50;17.23;;;12.47;;
12703;SDS011;6416;52.182;7.650;2022-12-04T10:03:17;21.67;;;14.07;;
12703;SDS011;6416;52.182;7.650;2022-12-04T10:06:00;19.07;;;13.47;;
12703;SDS011;6416;52.182;7.650;2022-12-04T10:08:56;18.70;;;13.30;;
12703;SDS011;6416;52.182;7.650;2022-12-04T10:11:38;20.00;;;14.50;;
12703;SDS011;6416;52.182;7.650;2022-12-04T10:14:29;19.30;;;13.73;;
12703;SDS011;6416;52.182;7.650;2022-12-04T10:25:33;17.10;;;12.03;;
12703;SDS011;6416;52.182;7.650;2022-12-04T10:28:05;21.17;;;14.40;;
12703;SDS011;6416;52.182;7.650;2022-12-04T10:30:54;21.73;;;14.67;;
12703;SDS011;6416;52.182;7.650;2022-12-04T10:33:27;21.47;;;14.43;;
12703;SDS011;6416;52.182;7.650;2022-12-04T10:36:00;24.67;;;15.17;;
12703;SDS011;6416;52.182;7.650;2022-12-04T10:38:39;21.93;;;14.90;;
12703;SDS011;6416;52.182;7.650;2022-12-04T10:43:52;20.30;;;14.33;;
12703;SDS011;6416;52.182;7.650;2022-12-04T10:46:22;23.97;;;14.87;;
12703;SDS011;6416;52.182;7.650;2022-12-04T10:48:49;21.70;;;14.87;;
12703;SDS011;6416;52.182;7.650;2022-12-04T10:51:17;24.67;;;15.93;;
12703;SDS011;6416;52.182;7.650;2022-12-04T10:53:44;23.63;;;16.10;;
12703;SDS011;6416;52.182;7.650;2022-12-04T10:56:24;24.77;;;16.80;;
12703;SDS011;6416;52.182;7.650;2022-12-04T10:59:03;22.97;;;15.43;;
12703;SDS011;6416;52.182;7.650;2022-12-04T11:01:30;25.40;;;15.50;;
12703;SDS011;6416;52.182;7.650;2022-12-04T11:03:59;21.03;;;14.80;;
12703;SDS011;6416;52.182;7.650;2022-12-04T11:06:31;20.20;;;14.17;;
12703;SDS011;6416;52.182;7.650;2022-12-04T11:08:58;22.53;;;15.93;;
12703;SDS011;6416;52.182;7.650;2022-12-04T11:11:27;21.33;;;15.67;;
12703;SDS011;6416;52.182;7.650;2022-12-04T11:14:01;22.80;;;15.73;;
12703;SDS011;6416;52.182;7.650;2022-12-04T11:16:38;19.47;;;13.83;;
12703;SDS011;6416;52.182;7.650;2022-12-04T11:21:50;24.00;;;17.07;;
12703;SDS011;6416;52.182;7.650;2022-12-04T11:24:22;20.40;;;14.97;;
12703;SDS011;6416;52.182;7.650;2022-12-04T11:27:00;23.13;;;16.93;;
12703;SDS011;6416;52.182;7.650;2022-12-04T11:29:31;25.07;;;17.57;;
12703;SDS011;6416;52.182;7.650;2022-12-04T11:32:02;23.60;;;16.93;;
12703;SDS011;6416;52.182;7.650;2022-12-04T11:34:34;27.30;;;18.37;;
12703;SDS011;6416;52.182;7.650;2022-12-04T11:37:02;22.87;;;16.63;;
12703;SDS011;6416;52.182;7.650;2022-12-04T11:39:36;25.83;;;17.70;;
12703;SDS011;6416;52.182;7.650;2022-12-04T11:42:13;25.33;;;17.10;;
12703;SDS011;6416;52.182;7.650;2022-12-04T11:47:25;25.97;;;17.40;;
12703;SDS011;6416;52.182;7.650;2022-12-04T11:49:56;23.07;;;16.63;;
12703;SDS011;6416;52.182;7.650;2022-12-04T11:55:17;26.83;;;18.43;;
12703;SDS011;6416;52.182;7.650;2022-12-04T12:00:37;23.90;;;16.07;;
12703;SDS011;6416;52.182;7.650;2022-12-04T12:03:27;22.03;;;16.03;;
12703;SDS011;6416;52.182;7.650;2022-12-04T12:06:27;23.73;;;16.53;;
12703;SDS011;6416;52.182;7.650;2022-12-04T12:09:21;23.37;;;15.87;;
12703;SDS011;6416;52.182;7.650;2022-12-04T12:11:57;22.23;;;14.87;;
12703;SDS011;6416;52.182;7.650;2022-12-04T12:25:19;21.47;;;15.17;;
12703;SDS011;6416;52.182;7.650;2022-12-04T12:28:04;22.17;;;15.47;;
12703;SDS011;6416;52.182;7.650;2022-12-04T12:30:43;21.53;;;15.43;;
12703;SDS011;6416;52.182;7.650;2022-12-04T12:33:23;25.73;;;16.67;;
12703;SDS011;6416;52.182;7.650;2022-12-04T12:36:00;24.83;;;16.67;;
12703;SDS011;6416;52.182;7.650;2022-12-04T12:38:33;24.23;;;16.60;;
12703;SDS011;6416;52.182;7.650;2022-12-04T12:41:14;20.00;;;14.97;;
12703;SDS011;6416;52.182;7.650;2022-12-04T12:43:44;24.57;;;17.67;;
12703;SDS011;6416;52.182;7.650;2022-12-04T12:46:52;24.93;;;18.03;;
12703;SDS011;6416;52.182;7.650;2022-12-04T12:49:22;25.10;;;17.90;;
12703;SDS011;6416;52.182;7.650;2022-12-04T12:52:12;22.27;;;16.60;;
12703;SDS011;6416;52.182;7.650;2022-12-04T12:55:19;26.67;;;18.43;;
12703;SDS011;6416;52.182;7.650;2022-12-04T13:00:36;23.07;;;16.40;;
12703;SDS011;6416;52.182;7.650;2022-12-04T13:05:50;24.30;;;16.37;;
12703;SDS011;6416;52.182;7.650;2022-12-04T13:10:52;29.70;;;19.80;;
12703;SDS011;6416;52.182;7.650;2022-12-04T13:13:29;26.90;;;18.40;;
12703;SDS011;6416;52.182;7.650;2022-12-04T13:16:00;25.43;;;18.77;;
12703;SDS011;6416;52.182;7.650;2022-12-04T13:18:47;25.30;;;18.10;;
12703;SDS011;6416;52.182;7.650;2022-12-04T13:21:23;25.23;;;17.73;;
12703;SDS011;6416;52.182;7.650;2022-12-04T13:24:24;21.90;;;15.83;;
12703;SDS011;6416;52.182;7.650;2022-12-04T13:26:59;25.13;;;15.87;;
12703;SDS011;6416;52.182;7.650;2022-12-04T13:42:33;22.80;;;16.27;;
12703;SDS011;6416;52.182;7.650;2022-12-04T13:44:59;25.90;;;17.60;;
12703;SDS011;6416;52.182;7.650;2022-12-04T13:47:32;23.97;;;15.93;;
12703;SDS011;6416;52.182;7.650;2022-12-04T13:52:42;24.00;;;15.83;;
12703;SDS011;6416;52.182;7.650;2022-12-04T14:00:31;22.97;;;16.23;;
12703;SDS011;6416;52.182;7.650;2022-12-04T14:03:05;21.03;;;15.30;;
12703;SDS011;6416;52.182;7.650;2022-12-04T14:05:45;23.53;;;16.60;;
12703;SDS011;6416;52.182;7.650;2022-12-04T14:10:43;25.80;;;16.73;;
12703;SDS011;6416;52.182;7.650;2022-12-04T14:13:21;24.77;;;16.70;;
12703;SDS011;6416;52.182;7.650;2022-12-04T14:16:04;21.57;;;15.37;;
12703;SDS011;6416;52.182;7.650;2022-12-04T14:18:32;25.07;;;17.03;;
12703;SDS011;6416;52.182;7.650;2022-12-04T14:20:59;30.07;;;20.23;;
12703;SDS011;6416;52.182;7.650;2022-12-04T14:23:35;26.97;;;17.93;;
12703;SDS011;6416;52.182;7.650;2022-12-04T14:26:03;24.30;;;16.43;;
12703;SDS011;6416;52.182;7.650;2022-12-04T14:33:51;21.03;;;15.87;;
12703;SDS011;6416;52.182;7.650;2022-12-04T14:36:32;25.90;;;17.27;;
12703;SDS011;6416;52.182;7.650;2022-12-04T14:39:02;26.40;;;17.73;;
12703;SDS011;6416;52.182;7.650;2022-12-04T14:41:32;24.60;;;16.20;;
12703;SDS011;6416;52.182;7.650;2022-12-04T14:43:58;24.87;;;16.33;;
12703;SDS011;6416;52.182;7.650;2022-12-04T14:46:35;25.10;;;16.53;;
12703;SDS011;6416;52.182;7.650;2022-12-04T14:55:36;24.87;;;17.17;;
12703;SDS011;6416;52.182;7.650;2022-12-04T14:58:16;26.73;;;17.53;;
12703;SDS011;6416;52.182;7.650;2022-12-04T15:00:47;27.30;;;18.40;;
12703;SDS011;6416;52.182;7.650;2022-12-04T15:03:17;23.00;;;16.83;;
12703;SDS011;6416;52.182;7.650;2022-12-04T15:05:43;23.40;;;17.07;;
12703;SDS011;6416;52.182;7.650;2022-12-04T15:08:09;23.00;;;16.27;;
12703;SDS011;6416;52.182;7.650;2022-12-04T15:10:36;22.00;;;16.33;;
12703;SDS011;6416;52.182;7.650;2022-12-04T15:13:02;23.03;;;16.00;;
12703;SDS011;6416;52.182;7.650;2022-12-04T15:15:28;22.80;;;16.07;;
12703;SDS011;6416;52.182;7.650;2022-12-04T15:17:55;25.13;;;17.57;;
12703;SDS011;6416;52.182;7.650;2022-12-04T15:20:20;24.53;;;18.27;;
12703;SDS011;6416;52.182;7.650;2022-12-04T15:22:46;27.37;;;18.77;;
12703;SDS011;6416;52.182;7.650;2022-12-04T15:25:13;26.50;;;18.53;;
12703;SDS011;6416;52.182;7.650;2022-12-04T15:27:44;26.27;;;17.43;;
12703;SDS011;6416;52.182;7.650;2022-12-04T15:30:15;26.27;;;17.47;;
12703;SDS011;6416;52.182;7.650;2022-12-04T15:32:46;20.67;;;15.80;;
12703;SDS011;6416;52.182;7.650;2022-12-04T15:35:19;25.97;;;17.97;;
12703;SDS011;6416;52.182;7.650;2022-12-04T15:37:48;23.97;;;15.67;;
12703;SDS011;6416;52.182;7.650;2022-12-04T15:40:18;23.67;;;17.17;;
12703;SDS011;6416;52.182;7.650;2022-12-04T15:42:46;28.00;;;19.23;;
12703;SDS011;6416;52.182;7.650;2022-12-04T15:50:07;25.07;;;17.20;;
12703;SDS011;6416;52.182;7.650;2022-12-04T15:55:32;21.67;;;15.83;;
12703;SDS011;6416;52.182;7.650;2022-12-04T15:58:02;25.53;;;16.23;;
12703;SDS011;6416;52.182;7.650;2022-12-04T16:00:31;22.70;;;14.87;;
12703;SDS011;6416;52.182;7.650;2022-12-04T16:02:59;22.00;;;16.33;;
12703;SDS011;6416;52.182;7.650;2022-12-04T16:05:31;20.87;;;14.43;;
12703;SDS011;6416;52.182;7.650;2022-12-04T16:07:59;20.70;;;14.53;;
12703;SDS011;6416;52.182;7.650;2022-12-04T16:10:27;22.87;;;15.90;;
12703;SDS011;6416;52.182;7.650;2022-12-04T16:12:59;19.70;;;14.33;;
12703;SDS011;6416;52.182;7.650;2022-12-04T16:15:35;21.20;;;14.43;;
12703;SDS011;6416;52.182;7.650;2022-12-04T16:18:06;20.47;;;13.83;;
12703;SDS011;6416;52.182;7.650;2022-12-04T16:20:36;20.80;;;14.67;;
12703;SDS011;6416;52.182;7.650;2022-12-04T16:23:03;21.63;;;14.87;;
12703;SDS011;6416;52.182;7.650;2022-12-04T16:25:29;21.67;;;14.47;;
12703;SDS011;6416;52.182;7.650;2022-12-04T16:27:55;18.00;;;13.27;;
12703;SDS011;6416;52.182;7.650;2022-12-04T16:30:24;20.57;;;15.33;;
12703;SDS011;6416;52.182;7.650;2022-12-04T16:32:51;23.77;;;16.47;;
12703;SDS011;6416;52.182;7.650;2022-12-04T16:35:17;18.93;;;14.80;;
12703;SDS011;6416;52.182;7.650;2022-12-04T16:37:43;21.47;;;15.43;;
12703;SDS011;6416;52.182;7.650;2022-12-04T16:40:10;19.57;;;14.87;;
12703;SDS011;6416;52.182;7.650;2022-12-04T16:42:37;18.17;;;13.50;;
12703;SDS011;6416;52.182;7.650;2022-12-04T16:45:10;18.03;;;13.63;;
12703;SDS011;6416;52.182;7.650;2022-12-04T16:47:44;19.27;;;13.83;;
12703;SDS011;6416;52.182;7.650;2022-12-04T16:50:11;16.70;;;12.77;;
12703;SDS011;6416;52.182;7.650;2022-12-04T16:52:37;18.63;;;13.23;;
12703;SDS011;6416;52.182;7.650;2022-12-04T16:55:02;20.53;;;14.70;;